Data for 06/28/2014

Time Sea-Level Adjusted Pressure Absolute Pressure Temperature Relative Humidity Dew Point   
(mb) (inHg) (mb) (inHg) (C) (F) (%) (C) (F)
00:05 1014 29.94 843 24.89 9.9 49.8 90 8.3 47
00:10 1014 29.94 843 24.89 9.8 49.7 90 8.2 46.8
00:15 1014 29.94 843 24.89 9.9 49.7 88 8 46.5
00:20 1014 29.94 843 24.89 9.9 49.9 89 8.1 46.6
00:25 1014 29.94 843 24.89 10 50 89 8.3 46.9
00:30 1014 29.94 843 24.89 9.9 49.9 89 8.2 46.8
00:35 1014 29.94 843 24.89 9.9 49.9 88 8 46.5
00:40 1014 29.94 843 24.89 10 50 89 8.2 46.8
00:45 1014 29.94 843 24.89 9.9 49.9 89 8.2 46.7
00:50 1014 29.94 843 24.89 9.9 49.8 89 8.1 46.6
00:55 1014 29.94 843 24.89 9.9 49.9 89 8.2 46.7
01:00 1014 29.94 843 24.89 10 50 89 8.3 46.9
01:05 1014 29.94 843 24.89 9.9 49.9 89 8.3 46.9
01:10 1014 29.94 843 24.89 9.8 49.6 89 8.1 46.5
01:15 1014 29.94 843 24.89 9.7 49.4 90 8.1 46.5
01:20 1014 29.94 843 24.89 9.6 49.3 89 7.9 46.2
01:25 1014 29.94 843 24.89 9.6 49.3 88 7.8 46
01:30 1014 29.94 843 24.89 9.6 49.3 88 7.7 45.8
01:35 1014 29.94 843 24.89 9.7 49.4 88 7.7 45.9
01:40 1014 29.94 843 24.89 9.7 49.4 87 7.6 45.7
01:45 1014 29.94 843 24.89 9.7 49.4 87 7.7 45.8
01:50 1014 29.94 843 24.89 9.6 49.3 87 7.6 45.7
01:55 1014 29.94 843 24.89 9.5 49.2 89 7.8 46
02:00 1014 29.94 843 24.89 9.5 49.1 89 7.8 46
02:05 1014 29.94 843 24.89 9.4 48.8 90 7.7 45.9
02:10 1014 29.94 843 24.89 9.2 48.6 90 7.7 45.9
02:15 1014 29.94 843 24.89 9.2 48.5 90 7.6 45.7
02:20 1014 29.94 843 24.89 9.3 48.8 89 7.6 45.7
02:25 1014 29.94 843 24.89 9.4 49 89 7.7 45.8
02:30 1014 29.94 843 24.89 9.4 49 89 7.7 45.9
02:35 1014 29.94 843 24.89 9.3 48.8 89 7.6 45.7
02:40 1014 29.94 843 24.89 9.3 48.8 88 7.5 45.5
02:45 1014 29.94 843 24.89 9.3 48.7 88 7.4 45.4
02:50 1014 29.94 843 24.89 9.4 48.8 88 7.5 45.5
02:55 1014 29.94 843 24.89 9.2 48.6 89 7.5 45.4
03:00 1014 29.94 843 24.89 9 48.2 90 7.4 45.3
03:05 1014 29.94 843 24.89 8.8 47.8 90 7.3 45.1
03:10 1014 29.94 843 24.89 8.7 47.7 90 7.3 45.1
03:15 1014 29.94 843 24.89 8.9 48 90 7.3 45.1
03:20 1014 29.94 843 24.89 8.9 48 90 7.3 45.2
03:25 1014 29.94 843 24.89 8.7 47.7 90 7.1 44.8
03:30 1014 29.94 843 24.89 8.7 47.6 88 6.9 44.4
03:35 1014 29.94 843 24.89 8.8 47.9 87 6.7 44.1
03:40 1014 29.94 843 24.89 8.8 47.8 87 6.7 44
03:45 1014 29.94 843 24.89 8.6 47.5 87 6.6 43.8
03:50 1014 29.94 843 24.89 8.6 47.5 86 6.4 43.6
03:55 1014 29.94 843 24.89 8.6 47.4 87 6.5 43.8
04:00 1014 29.94 843 24.89 8.5 47.3 88 6.6 43.8
04:05 1014 29.94 843 24.89 8.3 47 88 6.5 43.6
04:10 1014 29.94 843 24.89 8.1 46.6 88 6.3 43.4
04:15 1014 29.94 843 24.89 8 46.4 88 6.1 43
04:20 1014 29.94 843 24.89 7.8 46.1 88 6 42.8
04:25 1014 29.94 843 24.89 7.8 46 88 5.9 42.6
04:30 1014 29.94 843 24.89 7.7 45.9 88 5.9 42.6
04:35 1014 29.94 843 24.89 7.7 45.8 88 5.8 42.4
04:40 1014 29.94 843 24.89 7.7 45.8 88 5.9 42.5
04:45 1014 29.94 843 24.89 7.6 45.6 89 5.8 42.5
04:50 1014 29.94 843 24.89 7.6 45.6 88 5.8 42.4
04:55 1014 29.94 843 24.89 7.6 45.7 88 5.8 42.4
05:00 1014 29.94 843 24.89 7.7 45.8 88 5.8 42.4
05:05 1014 29.94 843 24.89 7.7 45.9 89 6.1 42.9
05:10 1014 29.94 843 24.89 7.8 46.1 88 6 42.8
05:15 1014 29.94 843 24.89 8 46.3 88 6.1 42.9
05:20 1014 29.94 843 24.89 8.4 47.2 85 6.1 43.1
05:25 1014 29.94 843 24.89 8.8 47.9 86 6.7 44
05:30 1014 29.94 844 24.92 8.9 48 88 7 44.5
05:35 1014 29.94 844 24.92 9.1 48.4 87 7.1 44.8
05:40 1015 29.97 844 24.92 9.3 48.8 87 7.3 45.2
05:45 1015 29.97 844 24.92 9.4 48.9 87 7.3 45.2
05:50 1014 29.94 844 24.92 9.4 49 88 7.5 45.5
05:55 1014 29.94 844 24.92 9.5 49 88 7.6 45.7
06:00 1015 29.97 844 24.92 9.4 48.9 89 7.7 45.8
06:05 1015 29.97 844 24.92 9.3 48.8 88 7.4 45.4
06:10 1015 29.97 844 24.92 9.3 48.8 88 7.5 45.5
06:15 1015 29.97 844 24.92 9.3 48.8 89 7.6 45.7
06:20 1015 29.97 844 24.92 9.3 48.7 89 7.6 45.7
06:25 1015 29.97 844 24.92 9.2 48.5 90 7.6 45.7
06:30 1015 29.97 844 24.92 9.1 48.3 91 7.7 45.8
06:35 1015 29.97 844 24.92 9.1 48.4 90 7.6 45.7
06:40 1015 29.97 844 24.92 9.1 48.4 90 7.7 45.8
06:45 1015 29.97 844 24.92 9.2 48.6 91 7.8 46
06:50 1015 29.97 844 24.92 9.5 49 91 8.1 46.6
06:55 1015 29.97 844 24.92 9.6 49.3 90 8.1 46.5
07:00 1014 29.94 844 24.92 9.8 49.6 90 8.2 46.8
07:05 1014 29.94 844 24.92 9.9 49.7 89 8.1 46.6
07:10 1014 29.94 844 24.92 10.2 50.4 87 8.1 46.6
07:15 1014 29.94 844 24.92 11.1 51.9 83 8.2 46.8
07:20 1014 29.94 844 24.92 11.1 52.1 85 8.7 47.6
07:25 1014 29.94 844 24.92 11.1 51.9 84 8.5 47.3
07:30 1014 29.94 844 24.92 10.9 51.7 84 8.3 47
07:35 1014 29.94 844 24.92 10.9 51.6 83 8.1 46.6
07:40 1014 29.94 844 24.92 11.1 51.9 83 8.4 47.1
07:45 1014 29.94 844 24.92 11.2 52.2 83 8.4 47.1
07:50 1014 29.94 844 24.92 11.5 52.6 84 8.8 47.9
07:55 1014 29.94 844 24.92 12.2 53.9 81 9.1 48.3
08:00 1015 29.97 844 24.92 12.2 53.9 79 8.7 47.7
08:05 1015 29.97 844 24.92 11.8 53.2 81 8.7 47.7
08:10 1015 29.97 844 24.92 11.9 53.5 80 8.6 47.5
08:15 1015 29.97 844 24.92 12.1 53.8 79 8.6 47.6
08:20 1015 29.97 844 24.92 12.2 54 77 8.4 47.1
08:25 1015 29.97 844 24.92 12.3 54.1 77 8.4 47.2
08:30 1015 29.97 844 24.92 12.2 53.9 77 8.4 47.1
08:35 1015 29.97 844 24.92 12.1 53.9 78 8.4 47.2
08:40 1015 29.97 844 24.92 12.3 54.1 75 8 46.5
08:45 1015 29.97 844 24.92 12.2 53.9 77 8.3 47
08:50 1015 29.97 844 24.92 12.3 54.2 76 8.2 46.7
08:55 1015 29.97 844 24.92 12.2 53.9 75 7.9 46.2
09:00 1015 29.97 844 24.92 12.4 54.4 75 8.1 46.6
09:05 1015 29.97 844 24.92 12.5 54.6 74 8.1 46.5
09:10 1015 29.97 844 24.92 12.7 54.8 73 8.1 46.5
09:15 1015 29.97 844 24.92 12.5 54.5 74 8 46.3
09:20 1015 29.97 844 24.92 12.1 53.7 70 6.9 44.4
09:25 1015 29.97 844 24.92 11.2 52.1 74 6.8 44.2
09:30 1015 29.97 844 24.92 10.6 51 75 6.4 43.5
09:35 1015 29.97 844 24.92 10.6 51.1 75 6.4 43.6
09:40 1015 29.97 844 24.92 11.3 52.3 74 6.7 44.1
09:45 1015 29.97 844 24.92 12.3 54.2 73 7.6 45.7
09:50 1015 29.97 844 24.92 12.9 55.1 71 7.8 46
09:55 1015 29.97 844 24.92 13.2 55.7 70 7.8 46.1
10:00 1015 29.97 844 24.92 12.9 55.2 73 8.2 46.7
10:05 1015 29.97 844 24.92 12.3 54.1 74 7.8 46
10:10 1015 29.97 844 24.92 11.7 53.1 78 8 46.3
10:15 1016 30 845 24.95 10.7 51.2 84 8.1 46.5
10:20 1016 30 845 24.95 10.3 50.5 86 8.1 46.5
10:25 1016 30 845 24.95 10.1 50.2 85 7.7 45.8
10:30 1016 30 845 24.95 9.9 49.8 85 7.6 45.6
10:35 1016 30 845 24.95 9.8 49.6 85 7.4 45.3
10:40 1016 30 845 24.95 9.9 49.7 85 7.5 45.5
10:45 1016 30 845 24.95 10.2 50.4 84 7.7 45.8
10:50 1016 30 845 24.95 10.8 51.4 85 8.3 47
10:55 1016 30 845 24.95 11.1 52 82 8.1 46.6
11:00 1016 30 845 24.95 11.4 52.5 77 7.5 45.6
11:05 1016 30 845 24.95 11.5 52.7 80 8.1 46.6
11:10 1016 30 845 24.95 11.4 52.5 76 7.4 45.3
11:15 1016 30 845 24.95 11.5 52.6 78 7.7 45.9
11:20 1015 29.97 845 24.95 12 53.5 75 7.7 45.8
11:25 1015 29.97 845 24.95 12.4 54.4 74 8 46.4
11:30 1015 29.97 845 24.95 12.9 55.2 67 6.9 44.4
11:35 1015 29.97 844 24.92 13.1 55.6 67 7.1 44.7
11:40 1015 29.97 844 24.92 13.8 56.8 68 8.1 46.6
11:45 1015 29.97 845 24.95 15.2 59.4 59 7.3 45.2
11:50 1015 29.97 845 24.95 15.4 59.8 59 7.6 45.6
11:55 1015 29.97 845 24.95 16.2 61.2 53 6.8 44.2
12:00 1015 29.97 844 24.92 16.8 62.2 50 6.4 43.5
12:05 1015 29.97 844 24.92 16.7 62 50 6.4 43.5
12:10 1015 29.97 844 24.92 16.6 61.8 53 6.9 44.4
12:15 1015 29.97 844 24.92 16.7 62.1 48 5.8 42.5
12:20 1015 29.97 844 24.92 16.8 62.2 51 6.7 44
12:25 1015 29.97 844 24.92 17.8 64 46 6 42.8
12:30 1015 29.97 844 24.92 17.8 64 43 5.2 41.3
12:35 1015 29.97 844 24.92 17.6 63.7 42 4.7 40.5
12:40 1015 29.97 844 24.92 17.9 64.1 46 6.1 43
12:45 1015 29.97 844 24.92 17.7 63.8 46 5.9 42.6
12:50 1015 29.97 844 24.92 17.4 63.2 46 5.7 42.2
12:55 1015 29.97 844 24.92 17.1 62.7 49 6.4 43.6
13:00 1015 29.97 844 24.92 16.2 61.2 53 6.8 44.2
13:05 1015 29.97 844 24.92 16.1 61 51 6 42.9
13:10 1015 29.97 844 24.92 15.9 60.5 55 7 44.6
13:15 1015 29.97 844 24.92 15.7 60.2 63 8.6 47.5
13:20 1015 29.97 844 24.92 15.2 59.4 62 8.1 46.5
13:25 1015 29.97 844 24.92 14.9 58.8 70 9.4 49
13:30 1015 29.97 844 24.92 14.6 58.2 62 7.3 45.2
13:35 1015 29.97 844 24.92 14.5 58 63 7.5 45.4
13:40 1015 29.97 844 24.92 15.2 59.4 60 7.6 45.7
13:45 1015 29.97 844 24.92 16.2 61.1 59 8.2 46.8
13:50 1015 29.97 844 24.92 16.4 61.4 59 8.5 47.3
13:55 1015 29.97 844 24.92 16.2 61.2 54 6.9 44.4
14:00 1015 29.97 844 24.92 16 60.8 55 7.2 44.9
14:05 1015 29.97 844 24.92 15.8 60.4 59 7.8 46
14:10 1015 29.97 844 24.92 15.1 59.2 53 5.7 42.2
14:15 1015 29.97 844 24.92 14.2 57.6 57 6 42.8
14:20 1015 29.97 844 24.92 13.8 56.9 55 5 40.9
14:25 1015 29.97 844 24.92 13.9 57 57 5.5 41.8
14:30 1015 29.97 844 24.92 14.2 57.6 55 5.3 41.6
14:35 1015 29.97 844 24.92 15.3 59.6 56 6.6 43.9
14:40 1015 29.97 844 24.92 16.4 61.6 46 5 41
14:45 1015 29.97 844 24.92 16.2 61.2 48 5.3 41.6
14:50 1015 29.97 844 24.92 16 60.8 55 7.1 44.7
14:55 1015 29.97 844 24.92 15.8 60.4 54 6.5 43.6
15:00 1015 29.97 845 24.95 15.6 60.1 56 7 44.6
15:05 1015 29.97 845 24.95 14.6 58.3 51 4.7 40.4
15:10 1015 29.97 845 24.95 14.1 57.4 59 6.4 43.5
15:15 1015 29.97 845 24.95 13.6 56.5 58 5.7 42.3
15:20 1015 29.97 845 24.95 13.4 56.2 64 6.8 44.2
15:25 1015 29.97 845 24.95 13.5 56.3 60 5.9 42.6
15:30 1015 29.97 844 24.92 14.1 57.5 54 4.9 40.9
15:35 1015 29.97 844 24.92 15.2 59.4 58 7.1 44.8
15:40 1015 29.97 844 24.92 16 60.8 56 7.2 45
15:45 1015 29.97 844 24.92 16.5 61.6 51 6.5 43.7
15:50 1015 29.97 844 24.92 17 62.6 47 5.8 42.5
15:55 1015 29.97 844 24.92 17.4 63.3 47 6 42.9
16:00 1015 29.97 844 24.92 17.9 64.3 45 6.1 42.9
16:05 1015 29.97 844 24.92 18.2 64.7 42 5.1 41.3
16:10 1015 29.97 844 24.92 18.3 65 41 5 41
16:15 1015 29.97 844 24.92 19 66.2 41 5.5 41.9
16:20 1015 29.97 844 24.92 19.5 67.2 35 3.7 38.6
16:25 1015 29.97 844 24.92 19.2 66.5 32 2.1 35.8
16:30 1015 29.97 844 24.92 18.8 65.8 34 2.8 37.1
16:35 1015 29.97 844 24.92 18.5 65.3 33 2 35.6
16:40 1015 29.97 844 24.92 18.5 65.3 34 2.5 36.4
16:45 1015 29.97 844 24.92 18.9 66 30 1.3 34.4
16:50 1015 29.97 844 24.92 19 66.2 32 1.9 35.4
16:55 1015 29.97 844 24.92 18.5 65.4 29 0.5 32.9
17:00 1015 29.97 844 24.92 18.1 64.5 30 0.5 33
17:05 1015 29.97 844 24.92 18.4 65 30 0.5 33
17:10 1015 29.97 844 24.92 18.5 65.2 30 0.7 33.2
17:15 1015 29.97 844 24.92 18.9 66.1 30 1.2 34.2
17:20 1015 29.97 844 24.92 19.2 66.5 30 1.1 34
17:25 1014 29.94 844 24.92 19 66.3 31 1.7 35
17:30 1015 29.97 844 24.92 18.9 66 30 1.2 34.2
17:35 1014 29.94 844 24.92 18.5 65.2 31 1 33.8
17:40 1014 29.94 844 24.92 18.5 65.2 31 1.3 34.4
17:45 1015 29.97 844 24.92 18.5 65.3 31 1.1 33.9
17:50 1015 29.97 844 24.92 18.9 65.9 31 1.3 34.4
17:55 1015 29.97 844 24.92 18.9 66 31 1.7 35.1
18:00 1015 29.97 844 24.92 19 66.1 31 1.5 34.7
18:05 1015 29.97 844 24.92 19.1 66.3 31 1.9 35.3
18:10 1015 29.97 844 24.92 19 66.3 32 2.3 36.1
18:15 1015 29.97 844 24.92 18.6 65.6 33 2.3 36.2
18:20 1015 29.97 844 24.92 18.4 65 31 1.1 34
18:25 1015 29.97 844 24.92 18.4 65 31 1.1 33.9
18:30 1015 29.97 844 24.92 18.6 65.5 31 1.4 34.5
18:35 1015 29.97 844 24.92 18.7 65.6 31 1.4 34.5
18:40 1015 29.97 844 24.92 18.6 65.4 31 1.3 34.3
18:45 1015 29.97 844 24.92 18.4 65.2 32 1.7 35
18:50 1015 29.97 844 24.92 18.2 64.7 32 1.2 34.2
18:55 1015 29.97 844 24.92 18.1 64.6 33 1.8 35.2
19:00 1015 29.97 844 24.92 18 64.3 32 1.1 34
19:05 1015 29.97 844 24.92 17.8 64.1 31 0.5 32.9
19:10 1015 29.97 844 24.92 17.6 63.6 32 0.8 33.4
19:15 1015 29.97 844 24.92 17.4 63.4 33 1 33.8
19:20 1015 29.97 844 24.92 17.3 63.1 33 0.8 33.5
19:25 1015 29.97 844 24.92 17.2 62.9 33 1.1 34
19:30 1015 29.97 844 24.92 17.1 62.7 34 1.4 34.5
19:35 1015 29.97 844 24.92 17 62.6 35 1.4 34.4
19:40 1015 29.97 844 24.92 16.9 62.4 36 1.8 35.2
19:45 1015 29.97 844 24.92 16.7 62.1 37 2.2 36
19:50 1015 29.97 844 24.92 16.4 61.6 38 2.3 36.1
19:55 1015 29.97 845 24.95 16.2 61.1 39 2.3 36.1
20:00 1015 29.97 845 24.95 16 60.8 38 1.8 35.2
20:05 1015 29.97 845 24.95 15.8 60.4 39 2 35.6
20:10 1015 29.97 845 24.95 15.5 59.9 40 2.2 35.9
20:15 1016 30 845 24.95 15.2 59.4 41 2.2 36
20:20 1016 30 845 24.95 15 59 42 2.3 36.1
20:25 1016 30 845 24.95 14.7 58.5 45 2.9 37.2
20:30 1016 30 845 24.95 14.4 57.9 48 3.5 38.3
20:35 1016 30 845 24.95 14.1 57.4 50 3.8 38.8
20:40 1016 30 845 24.95 13.9 57 51 3.9 39
20:45 1016 30 845 24.95 13.8 56.8 51 4 39.1
20:50 1016 30 845 24.95 13.6 56.5 52 3.9 39.1
20:55 1016 30 845 24.95 13.5 56.2 52 3.8 38.9
21:00 1016 30 846 24.98 13.3 56 53 4.1 39.3
21:05 1016 30 846 24.98 13.2 55.8 54 4.1 39.3
21:10 1017 30.03 846 24.98 12.4 54.2 60 4.9 40.9
21:15 1017 30.03 846 24.98 11.6 53 60 4.2 39.6
21:20 1017 30.03 846 24.98 11.6 52.9 60 4.1 39.3
21:25 1017 30.03 846 24.98 11.8 53.2 59 4 39.2
21:30 1017 30.03 846 24.98 11.7 53.1 58 3.8 38.9
21:35 1017 30.03 846 24.98 11.8 53.2 57 3.6 38.5
21:40 1017 30.03 846 24.98 11.9 53.5 56 3.4 38.1
21:45 1017 30.03 846 24.98 12.1 53.8 57 3.9 39
21:50 1017 30.03 846 24.98 12.3 54.1 55 3.5 38.4
21:55 1017 30.03 846 24.98 11.9 53.5 59 4.3 39.8
22:00 1017 30.03 846 24.98 11.3 52.3 62 4.2 39.6
22:05 1017 30.03 846 24.98 10.9 51.7 63 4.1 39.4
22:10 1017 30.03 846 24.98 10.8 51.4 64 4.3 39.7
22:15 1017 30.03 846 24.98 10.5 50.9 67 4.5 40.2
22:20 1017 30.03 846 24.98 10.4 50.6 67 4.4 40
22:25 1017 30.03 846 24.98 10.2 50.3 68 4.7 40.4
22:30 1017 30.03 846 24.98 9.9 49.8 68 4.4 39.9
22:35 1017 30.03 846 24.98 9.8 49.7 68 4.3 39.7
22:40 1017 30.03 846 24.98 9.9 49.8 68 4.3 39.7
22:45 1017 30.03 846 24.98 9.8 49.7 68 4.3 39.7
22:50 1017 30.03 846 24.98 9.8 49.6 68 4.2 39.5
22:55 1017 30.03 846 24.98 9.8 49.7 67 4 39.1
23:00 1017 30.03 846 24.98 9.8 49.7 68 4.3 39.7
23:05 1017 30.03 846 24.98 9.5 49.2 70 4.3 39.7
23:10 1017 30.03 846 24.98 9.3 48.7 70 4.1 39.4
23:15 1017 30.03 847 25.01 9.3 48.7 70 4.1 39.3
23:20 1017 30.03 847 25.01 9.3 48.7 70 4 39.3
23:25 1017 30.03 847 25.01 9.4 48.9 69 4 39.3
23:30 1018 30.06 847 25.01 9.3 48.7 68 3.7 38.7
23:35 1018 30.06 847 25.01 9.3 48.7 65 3.1 37.6
23:40 1018 30.06 847 25.01 9.5 49.2 65 3.2 37.8
23:45 1018 30.06 847 25.01 9.5 49.1 65 3.3 37.9
23:50 1018 30.06 847 25.01 9.5 49.1 64 3.1 37.7
23:55 1018 30.06 847 25.01 9.6 49.3 62 2.8 37
24:00 1018 30.06 847 25.01 9.9 49.8 64 3.4 38